Time;durP1;ratioP1;P1;durP2;ratioP2;P2;SDS_P1;SDS_P2;PMS_P1;PMS_P2;Temp;Humidity;BMP_temperature;BMP_pressure;BME280_temperature;BME280_humidity;BME280_pressure;Samples;Min_cycle;Max_cycle;Signal;HPM_P1;HPM_P2
2022/04/16 00:01:40;;;;;;;2.07;1.90;;;;;;;8.40;100.00;100045.94;6125851;23;20167;-77
2022/04/16 00:04:09;;;;;;;2.00;1.90;;;;;;;8.49;100.00;100035.94;6125355;23;20174;-77
2022/04/16 00:06:36;;;;;;;2.80;1.77;;;;;;;8.61;100.00;100034.38;6125573;23;20171;-77
2022/04/16 00:09:03;;;;;;;1.90;1.80;;;;;;;8.64;100.00;100033.16;6125548;23;20166;-76
2022/04/16 00:11:30;;;;;;;2.10;2.00;;;;;;;8.70;100.00;100029.69;6125344;23;20160;-77
2022/04/16 00:13:57;;;;;;;2.17;1.93;;;;;;;8.71;100.00;100031.34;6125677;23;20160;-77
2022/04/16 00:16:23;;;;;;;1.90;1.80;;;;;;;8.75;100.00;100028.09;6125293;23;20266;-77
2022/04/16 00:18:50;;;;;;;2.00;1.80;;;;;;;8.84;100.00;100034.91;6125700;23;20175;-77
2022/04/16 00:21:17;;;;;;;1.80;1.70;;;;;;;8.94;100.00;100026.53;6124898;23;20385;-77
2022/04/16 00:23:44;;;;;;;2.10;1.90;;;;;;;8.93;100.00;100024.88;6125825;23;20160;-77
2022/04/16 00:26:13;;;;;;;2.00;1.90;;;;;;;8.89;100.00;100030.81;6125750;23;20170;-78
2022/04/16 00:28:40;;;;;;;1.90;1.80;;;;;;;8.87;100.00;100036.34;6125653;23;20167;-77
2022/04/16 00:31:07;;;;;;;1.90;1.80;;;;;;;8.78;100.00;100034.88;6125577;23;20188;-77
2022/04/16 00:33:34;;;;;;;1.93;1.83;;;;;;;8.82;100.00;100030.78;6125718;23;20171;-77
2022/04/16 00:36:01;;;;;;;2.13;1.90;;;;;;;8.89;100.00;100041.50;6125164;23;20210;-77
2022/04/16 00:38:28;;;;;;;2.27;1.90;;;;;;;8.85;100.00;100035.75;6125272;23;20238;-77
2022/04/16 00:40:55;;;;;;;1.80;1.70;;;;;;;8.88;100.00;100023.81;6099224;23;20695;-76
2022/04/16 00:43:27;;;;;;;1.90;1.80;;;;;;;8.89;100.00;100028.16;6125306;23;20279;-77
2022/04/16 00:45:54;;;;;;;3.40;1.77;;;;;;;8.92;100.00;100025.88;6125119;23;20171;-76
2022/04/16 00:48:22;;;;;;;2.10;1.90;;;;;;;9.02;100.00;100015.66;6125025;23;20184;-77
2022/04/16 00:50:51;;;;;;;1.90;1.80;;;;;;;8.95;100.00;100019.34;6125131;23;20613;-77
2022/04/16 00:53:18;;;;;;;2.13;1.60;;;;;;;9.00;100.00;100015.06;6125136;23;20230;-77
2022/04/16 00:55:45;;;;;;;1.80;1.70;;;;;;;9.13;100.00;100014.25;6125370;23;20187;-77
2022/04/16 00:58:12;;;;;;;1.87;1.77;;;;;;;9.02;100.00;100012.16;6124838;23;20623;-77
2022/04/16 01:00:39;;;;;;;2.00;1.90;;;;;;;9.12;100.00;100016.09;6124873;23;20168;-76
2022/04/16 01:03:06;;;;;;;2.37;2.17;;;;;;;9.11;100.00;100006.44;6099583;23;20191;-76
2022/04/16 01:05:33;;;;;;;2.00;1.90;;;;;;;9.05;100.00;100014.44;6099706;23;20556;-76
2022/04/16 01:08:04;;;;;;;2.30;2.10;;;;;;;9.23;100.00;100015.53;6124808;23;20171;-77
2022/04/16 01:10:33;;;;;;;2.10;2.00;;;;;;;9.13;100.00;100014.25;6124737;23;20214;-76
2022/04/16 01:13:05;;;;;;;1.90;1.77;;;;;;;9.25;100.00;100015.31;6125349;23;20170;-76
2022/04/16 01:15:32;;;;;;;2.07;1.97;;;;;;;9.10;100.00;100014.63;6124802;23;20176;-76
2022/04/16 01:18:02;;;;;;;2.00;1.90;;;;;;;9.10;100.00;100007.44;6099438;23;20190;-76
2022/04/16 01:20:33;;;;;;;2.30;2.10;;;;;;;9.11;100.00;99998.41;6124878;23;20700;-76
2022/04/16 01:23:01;;;;;;;1.70;1.60;;;;;;;9.13;100.00;100011.59;6125168;23;20578;-76
2022/04/16 01:25:28;;;;;;;2.20;2.00;;;;;;;9.17;100.00;100007.47;6125114;23;20171;-77
2022/04/16 01:27:55;;;;;;;2.43;2.23;;;;;;;9.09;100.00;100005.00;6125082;23;20684;-77
2022/04/16 01:30:23;;;;;;;2.30;2.10;;;;;;;9.15;100.00;100007.69;6124602;23;20194;-77
2022/04/16 01:32:50;;;;;;;2.17;2.07;;;;;;;9.20;100.00;100004.41;6125064;23;20246;-76
2022/04/16 01:35:17;;;;;;;2.57;2.37;;;;;;;9.28;100.00;99998.88;6124974;23;22040;-77
2022/04/16 01:37:44;;;;;;;2.20;2.10;;;;;;;9.21;100.00;100006.06;6124974;23;20240;-77
2022/04/16 01:40:12;;;;;;;2.50;2.30;;;;;;;9.18;100.00;99996.59;6124957;23;20164;-77
2022/04/16 01:42:40;;;;;;;2.53;2.33;;;;;;;9.27;100.00;100002.59;6099225;23;20159;-77
2022/04/16 01:45:09;;;;;;;2.53;2.33;;;;;;;9.16;100.00;100003.16;6124634;23;20167;-77
2022/04/16 01:47:38;;;;;;;2.63;2.43;;;;;;;9.08;100.00;100004.16;6124742;23;20740;-77
2022/04/16 01:50:10;;;;;;;2.97;2.60;;;;;;;9.06;100.00;100005.38;6124620;23;20159;-77
2022/04/16 01:52:38;;;;;;;2.57;2.27;;;;;;;9.19;100.00;100002.78;6125043;23;20163;-78
2022/04/16 01:55:05;;;;;;;2.80;2.50;;;;;;;9.12;100.00;100000.06;6124871;23;20631;-77
2022/04/16 01:57:32;;;;;;;2.60;2.40;;;;;;;9.10;100.00;99998.59;6099511;23;20159;-78
2022/04/16 01:59:59;;;;;;;2.63;2.43;;;;;;;9.06;100.00;99995.50;6125033;23;20164;-78
2022/04/16 02:02:26;;;;;;;2.53;2.33;;;;;;;9.04;100.00;99996.75;6124909;23;20164;-77
2022/04/16 02:04:52;;;;;;;2.40;2.20;;;;;;;9.15;100.00;99993.47;6125055;23;20194;-78
2022/04/16 02:07:19;;;;;;;2.13;2.03;;;;;;;9.12;100.00;99988.56;6124843;23;20617;-77
2022/04/16 02:09:46;;;;;;;2.60;2.40;;;;;;;9.14;100.00;99992.69;6125304;23;20247;-77
2022/04/16 02:12:13;;;;;;;2.30;2.10;;;;;;;9.18;100.00;99993.09;6124867;23;20167;-78
2022/04/16 02:14:39;;;;;;;2.40;2.20;;;;;;;9.22;100.00;99989.81;6125204;23;20179;-78
2022/04/16 02:17:06;;;;;;;2.60;2.27;;;;;;;9.09;100.00;99983.63;6124758;23;20505;-78
2022/04/16 02:19:34;;;;;;;2.50;2.30;;;;;;;9.35;100.00;99985.50;6124757;23;20174;-78
2022/04/16 02:22:00;;;;;;;2.60;2.40;;;;;;;9.33;100.00;99988.41;6125348;23;20180;-78
2022/04/16 02:24:27;;;;;;;2.50;2.30;;;;;;;9.19;100.00;99987.53;6124738;23;20163;-77
2022/04/16 02:26:58;;;;;;;2.40;2.20;;;;;;;9.22;100.00;99979.13;6124544;23;20215;-77
2022/04/16 02:29:25;;;;;;;2.23;2.13;;;;;;;9.37;100.00;99983.47;6124933;23;20148;-77
2022/04/16 02:31:52;;;;;;;2.37;2.27;;;;;;;9.29;100.00;99984.47;6125008;23;20509;-77
2022/04/16 02:34:19;;;;;;;2.27;2.13;;;;;;;9.17;100.00;99978.06;6098847;23;20167;-78
2022/04/16 02:36:46;;;;;;;2.73;2.50;;;;;;;9.26;100.00;99980.38;6124689;23;20204;-77
2022/04/16 02:39:14;;;;;;;3.00;2.80;;;;;;;9.31;100.00;99981.59;6124486;23;20571;-77
2022/04/16 02:41:41;;;;;;;2.73;2.53;;;;;;;9.42;100.00;99976.50;6124317;23;20181;-77
2022/04/16 02:47:05;;;;;;;2.47;2.27;;;;;;;9.26;100.00;99977.69;6099113;23;20168;-76
2022/04/16 02:47:08;;;;;;;2.97;2.60;;;;;;;9.19;100.00;99973.38;6126230;23;20195;-77
2022/04/16 02:49:37;;;;;;;2.60;2.40;;;;;;;9.16;100.00;99977.25;6126309;23;20181;-77
2022/04/16 02:52:04;;;;;;;3.10;2.80;;;;;;;9.15;100.00;99977.44;6101036;23;20254;-77
2022/04/16 02:54:31;;;;;;;2.57;2.37;;;;;;;9.24;100.00;99976.22;6126485;23;20187;-77
2022/04/16 02:56:58;;;;;;;2.90;2.70;;;;;;;9.25;100.00;99975.22;6126018;23;20543;-77
2022/04/16 02:59:27;;;;;;;2.90;2.70;;;;;;;9.34;100.00;99971.31;6126446;23;20230;-77
2022/04/16 03:01:54;;;;;;;3.00;2.80;;;;;;;9.43;100.00;99967.41;6126284;23;20190;-77
2022/04/16 03:04:21;;;;;;;2.97;2.67;;;;;;;9.29;100.00;99966.59;6126541;23;20549;-78
2022/04/16 03:06:48;;;;;;;3.07;2.80;;;;;;;9.33;100.00;99968.88;6126260;23;20168;-77
2022/04/16 03:09:15;;;;;;;2.87;2.63;;;;;;;9.37;100.00;99968.25;6126286;23;20160;-77
2022/04/16 03:11:41;;;;;;;2.90;2.70;;;;;;;9.39;100.00;99957.34;6126135;23;20250;-81
2022/04/16 03:19:38;;;;;;;3.00;2.80;;;;;;;9.28;100.00;99966.81;6126165;23;20263;-78
2022/04/16 03:22:05;;;;;;;3.00;2.70;;;;;;;9.24;100.00;99961.00;6126283;23;20637;-77
2022/04/16 03:24:32;;;;;;;3.03;2.83;;;;;;;9.27;100.00;99962.47;6124838;23;20474;-77
2022/04/16 03:26:59;;;;;;;3.00;2.80;;;;;;;9.36;100.00;99971.13;6126373;23;20246;-77
2022/04/16 03:29:25;;;;;;;3.53;2.80;;;;;;;9.18;100.00;99969.88;6126130;23;20164;-77
2022/04/16 03:31:52;;;;;;;3.30;3.03;;;;;;;9.21;100.00;99972.13;6126076;23;20166;-77
2022/04/16 03:34:19;;;;;;;3.30;3.00;;;;;;;9.27;100.00;99975.84;6126303;23;20557;-77
2022/04/16 03:36:45;;;;;;;3.40;3.10;;;;;;;9.17;100.00;99978.91;6126170;23;20182;-77
2022/04/16 03:39:12;;;;;;;3.03;2.83;;;;;;;9.17;100.00;99975.41;6126626;23;20191;-77
2022/04/16 03:41:39;;;;;;;3.00;2.80;;;;;;;9.16;100.00;99976.44;6126235;23;20164;-77
2022/04/16 03:44:06;;;;;;;3.33;3.13;;;;;;;9.09;100.00;99989.78;6126232;23;20618;-78
2022/04/16 03:46:33;;;;;;;3.13;2.93;;;;;;;9.15;100.00;99988.13;6124659;23;20172;-78
2022/04/16 03:49:00;;;;;;;3.20;3.00;;;;;;;9.08;100.00;99982.78;6126198;23;20160;-77
2022/04/16 03:51:26;;;;;;;3.23;2.97;;;;;;;9.21;100.00;99993.50;6125848;23;20164;-77
2022/04/16 03:53:54;;;;;;;3.37;3.07;;;;;;;9.11;100.00;99985.06;6126381;23;20621;-77
2022/04/16 04:01:51;;;;;;;3.13;2.93;;;;;;;9.23;100.00;99987.97;6125982;23;20584;-77
2022/04/16 04:04:18;;;;;;;3.10;2.90;;;;;;;9.15;100.00;99990.81;6126040;23;20174;-78
2022/04/16 04:06:45;;;;;;;3.20;3.00;;;;;;;9.19;100.00;99994.75;6125876;23;20171;-77
2022/04/16 04:09:11;;;;;;;3.10;2.90;;;;;;;9.17;100.00;99978.06;6125943;23;20502;-77
2022/04/16 04:11:38;;;;;;;2.80;2.60;;;;;;;9.21;100.00;99984.66;6125921;23;20243;-78
2022/04/16 04:14:05;;;;;;;2.83;2.63;;;;;;;9.31;100.00;99990.44;6125954;23;20160;-78
2022/04/16 04:16:31;;;;;;;2.93;2.63;;;;;;;9.18;100.00;99990.44;6125551;23;20183;-77
2022/04/16 04:18:58;;;;;;;2.30;2.10;;;;;;;9.25;100.00;99988.56;6125764;23;20189;-77
2022/04/16 04:21:25;;;;;;;2.80;2.60;;;;;;;9.28;100.00;99994.34;6125703;23;20734;-80
2022/04/16 04:23:52;;;;;;;2.50;2.30;;;;;;;9.31;100.00;100000.31;6100178;23;20632;-77
2022/04/16 04:26:18;;;;;;;2.57;2.37;;;;;;;9.18;100.00;99995.78;6125761;23;20192;-78
2022/04/16 04:28:45;;;;;;;2.70;2.50;;;;;;;9.27;100.00;100005.25;6125859;23;20239;-77
2022/04/16 04:31:12;;;;;;;2.30;2.20;;;;;;;9.32;100.00;100008.16;6125648;23;20164;-77
2022/04/16 04:33:39;;;;;;;2.67;2.47;;;;;;;9.14;100.00;100008.72;6125851;23;20171;-77
2022/04/16 04:36:05;;;;;;;2.70;2.50;;;;;;;9.13;100.00;100015.09;6125738;23;20191;-77
2022/04/16 04:38:32;;;;;;;2.90;2.60;;;;;;;9.28;100.00;100020.28;6125919;23;20240;-77
2022/04/16 04:41:00;;;;;;;2.70;2.50;;;;;;;9.21;100.00;100008.72;6125294;23;20247;-76
2022/04/16 04:43:27;;;;;;;2.83;2.63;;;;;;;9.19;100.00;100011.59;6125657;23;20168;-80
2022/04/16 04:45:54;;;;;;;2.90;2.70;;;;;;;9.27;100.00;100023.97;6099909;23;20215;-77
2022/04/16 04:48:21;;;;;;;3.17;2.97;;;;;;;9.29;100.00;100029.94;6125281;23;20211;-77
2022/04/16 04:50:47;;;;;;;3.00;2.80;;;;;;;9.36;100.00;100032.63;6125389;23;20189;-77
2022/04/16 04:53:14;;;;;;;3.10;2.90;;;;;;;9.38;100.00;100034.06;6125533;23;20170;-77
2022/04/16 04:55:41;;;;;;;3.93;3.07;;;;;;;9.36;100.00;100041.47;6125500;23;20222;-77
2022/04/16 04:58:07;;;;;;;3.57;3.27;;;;;;;9.38;100.00;100044.75;6125574;23;20239;-79
2022/04/16 05:00:34;;;;;;;2.93;2.63;;;;;;;9.32;100.00;100040.25;6123283;23;20219;-78
2022/04/16 05:03:01;;;;;;;3.50;3.17;;;;;;;9.41;100.00;100049.72;6124525;23;20164;-77
2022/04/16 05:05:28;;;;;;;3.80;3.50;;;;;;;9.42;100.00;100048.69;6125182;23;20470;-77
2022/04/16 05:07:54;;;;;;;3.90;3.60;;;;;;;9.34;100.00;100050.72;6125194;23;20174;-77
2022/04/16 05:10:22;;;;;;;4.00;3.60;;;;;;;9.34;100.00;100045.38;6123684;23;20167;-77
2022/04/16 05:12:48;;;;;;;4.13;3.80;;;;;;;9.18;100.00;100060.75;6123146;23;20165;-77
2022/04/16 05:15:15;;;;;;;3.50;3.20;;;;;;;9.37;100.00;100061.84;6122850;23;20171;-77
2022/04/16 05:17:43;;;;;;;3.57;3.27;;;;;;;9.31;100.00;100051.94;6123242;23;20183;-77
2022/04/16 05:20:09;;;;;;;3.70;3.40;;;;;;;9.24;100.00;100056.44;6123051;23;20199;-77
2022/04/16 05:22:37;;;;;;;4.00;3.70;;;;;;;9.33;100.00;100055.25;6123073;23;20166;-77
2022/04/16 05:25:04;;;;;;;3.60;3.30;;;;;;;9.40;100.00;100060.63;6122950;23;20176;-78
2022/04/16 05:27:31;;;;;;;4.13;3.73;;;;;;;9.46;100.00;100073.19;6123162;23;20163;-78
2022/04/16 05:30:07;;;;;;;4.00;3.70;;;;;;;9.36;100.00;100059.38;6124056;23;20170;-77
2022/04/16 05:32:36;;;;;;;3.93;3.63;;;;;;;9.37;100.00;100050.31;6125268;23;20603;-77
2022/04/16 05:35:04;;;;;;;4.23;3.83;;;;;;;9.48;100.00;100055.06;6125304;23;20187;-78
2022/04/16 05:37:30;;;;;;;3.73;3.33;;;;;;;9.49;100.00;100046.84;6099565;23;20198;-77
2022/04/16 05:39:57;;;;;;;3.70;3.40;;;;;;;9.46;100.00;100059.81;6125567;23;20262;-77
2022/04/16 05:42:24;;;;;;;3.57;3.27;;;;;;;9.48;100.00;100063.09;6125148;23;20171;-78
2022/04/16 05:44:51;;;;;;;3.70;3.40;;;;;;;9.60;100.00;100058.81;6125077;23;20156;-77
2022/04/16 05:47:17;;;;;;;3.70;3.40;;;;;;;9.65;100.00;100051.84;6125079;23;20580;-77
2022/04/16 05:49:44;;;;;;;3.27;3.07;;;;;;;9.54;100.00;100062.28;6125212;23;20164;-77
2022/04/16 05:52:11;;;;;;;3.70;3.30;;;;;;;9.56;100.00;100066.44;6125344;23;20484;-77
2022/04/16 05:54:38;;;;;;;3.63;3.33;;;;;;;9.53;100.00;100071.34;6125223;23;20155;-77
2022/04/16 05:57:05;;;;;;;3.50;3.20;;;;;;;9.58;100.00;100075.06;6125247;23;20183;-77
2022/04/16 05:59:32;;;;;;;3.33;3.10;;;;;;;9.46;100.00;100078.53;6125122;23;20259;-78
2022/04/16 06:01:59;;;;;;;3.30;3.00;;;;;;;9.52;100.00;100088.41;6125100;23;20170;-77
2022/04/16 06:04:26;;;;;;;3.77;3.47;;;;;;;9.23;100.00;100090.41;6099857;23;20169;-77
2022/04/16 06:06:52;;;;;;;3.83;3.53;;;;;;;9.33;100.00;100095.38;6124976;23;20170;-77
2022/04/16 06:09:19;;;;;;;3.73;3.43;;;;;;;9.56;100.00;100106.56;6125301;23;20207;-77
2022/04/16 06:11:48;;;;;;;4.07;3.70;;;;;;;9.59;100.00;100100.78;6125168;23;20493;-78
2022/04/16 06:14:15;;;;;;;4.47;3.60;;;;;;;9.66;100.00;100104.28;6125227;23;20176;-77
2022/04/16 06:16:41;;;;;;;3.67;3.37;;;;;;;9.73;100.00;100104.31;6125207;23;20516;-77
2022/04/16 06:19:08;;;;;;;3.60;3.30;;;;;;;9.88;100.00;100114.84;6125414;23;20174;-77
2022/04/16 06:21:35;;;;;;;3.77;3.27;;;;;;;9.67;100.00;100111.31;6126873;23;20296;-78
2022/04/16 06:24:02;;;;;;;3.10;2.90;;;;;;;9.81;100.00;100111.31;6127040;23;20255;-78
2022/04/16 06:26:28;;;;;;;3.30;3.00;;;;;;;9.84;100.00;100116.28;6126845;23;20164;-77
2022/04/16 06:28:55;;;;;;;3.27;3.07;;;;;;;9.67;100.00;100108.63;6126997;23;20659;-77
2022/04/16 06:31:22;;;;;;;2.83;2.60;;;;;;;9.47;100.00;100120.31;6127207;23;20187;-77
2022/04/16 06:33:49;;;;;;;2.57;2.37;;;;;;;9.53;100.00;100116.81;6127262;23;20192;-78
2022/04/16 06:36:16;;;;;;;2.60;2.40;;;;;;;9.60;100.00;100118.50;6126757;23;20219;-78
2022/04/16 06:38:43;;;;;;;2.37;2.17;;;;;;;9.53;100.00;100112.28;6127094;23;20247;-78
2022/04/16 06:41:09;;;;;;;8.17;6.53;;;;;;;9.43;100.00;100121.72;6101853;23;20473;-77
2022/04/16 06:43:36;;;;;;;3.73;3.43;;;;;;;9.38;100.00;100132.22;6127343;23;20175;-77
2022/04/16 06:46:06;;;;;;;2.00;1.90;;;;;;;9.43;100.00;100122.53;6101394;23;20164;-77
2022/04/16 06:48:33;;;;;;;2.27;1.90;;;;;;;9.64;100.00;100135.78;6126479;23;20190;-79
2022/04/16 06:51:00;;;;;;;2.33;2.20;;;;;;;9.39;100.00;100136.50;6126520;23;20178;-77
2022/04/16 06:53:27;;;;;;;2.00;1.90;;;;;;;9.56;100.00;100127.13;6126856;23;20164;-78
2022/04/16 06:55:54;;;;;;;2.40;2.20;;;;;;;9.62;100.00;100137.00;6126838;23;20180;-79
2022/04/16 06:58:21;;;;;;;2.37;2.20;;;;;;;9.60;100.00;100145.25;6127773;23;20187;-80
2022/04/16 07:00:47;;;;;;;9.07;7.10;;;;;;;9.42;100.00;100146.81;6127865;23;20223;-79
2022/04/16 07:03:14;;;;;;;2.70;2.50;;;;;;;9.46;100.00;100142.72;6128222;23;20189;-79
2022/04/16 07:05:41;;;;;;;2.87;2.67;;;;;;;9.58;100.00;100152.63;6127693;23;20187;-79
2022/04/16 07:08:07;;;;;;;2.50;2.30;;;;;;;9.57;100.00;100160.84;6128138;23;20566;-79
2022/04/16 07:10:34;;;;;;;2.60;2.40;;;;;;;9.79;100.00;100145.50;6127914;23;20164;-79
2022/04/16 07:13:01;;;;;;;2.90;2.70;;;;;;;10.05;100.00;100156.25;6127623;23;20231;-79
2022/04/16 07:15:28;;;;;;;3.00;2.57;;;;;;;10.13;100.00;100150.72;6127662;23;20166;-80
2022/04/16 07:17:55;;;;;;;3.53;3.23;;;;;;;10.24;100.00;100157.34;6127761;23;20258;-79
2022/04/16 07:20:22;;;;;;;6.77;5.07;;;;;;;10.20;100.00;100159.63;6127244;23;20183;-79
2022/04/16 07:22:49;;;;;;;3.23;2.90;;;;;;;10.25;100.00;100167.03;6128038;23;20213;-79
2022/04/16 07:25:15;;;;;;;3.10;2.90;;;;;;;10.11;100.00;100174.19;6127440;23;20156;-78
2022/04/16 07:27:43;;;;;;;3.37;3.07;;;;;;;10.20;100.00;100167.66;6127422;23;20164;-79
2022/04/16 07:30:10;;;;;;;3.23;2.93;;;;;;;10.24;100.00;100176.09;6127627;23;20168;-79
2022/04/16 07:32:38;;;;;;;6.70;6.10;;;;;;;10.31;100.00;100172.38;6127542;23;20201;-79
2022/04/16 07:35:06;;;;;;;3.37;3.17;;;;;;;10.22;100.00;100175.50;6127660;23;20206;-79
2022/04/16 07:37:32;;;;;;;3.20;3.00;;;;;;;10.52;100.00;100176.75;6127396;23;20180;-80
2022/04/16 07:39:59;;;;;;;3.70;3.40;;;;;;;10.44;100.00;100176.94;6127469;23;20239;-79
2022/04/16 07:42:27;;;;;;;3.47;3.20;;;;;;;10.56;100.00;100176.13;6127391;23;20171;-80
2022/04/16 07:44:54;;;;;;;3.20;2.93;;;;;;;10.68;100.00;100179.03;6101819;23;20242;-79
2022/04/16 07:47:21;;;;;;;2.87;2.67;;;;;;;10.59;100.00;100174.91;6127414;23;20665;-79
2022/04/16 07:49:48;;;;;;;2.90;2.70;;;;;;;10.30;100.00;100183.31;6127572;23;20163;-79
2022/04/16 07:52:15;;;;;;;2.63;2.43;;;;;;;10.42;100.00;100177.16;6127575;23;20556;-79
2022/04/16 07:54:42;;;;;;;7.27;6.57;;;;;;;10.30;100.00;100183.31;6127644;23;20162;-79
2022/04/16 07:57:09;;;;;;;2.87;2.67;;;;;;;9.99;100.00;100184.66;6127178;23;20179;-79
2022/04/16 07:59:35;;;;;;;2.80;2.60;;;;;;;9.89;100.00;100186.09;6127310;23;20164;-79
2022/04/16 08:02:02;;;;;;;2.57;2.37;;;;;;;10.08;100.00;100193.31;6127038;23;20162;-79
2022/04/16 08:04:29;;;;;;;2.57;2.30;;;;;;;10.02;100.00;100191.47;6127132;23;20235;-79
2022/04/16 08:06:56;;;;;;;2.07;1.87;;;;;;;9.96;100.00;100190.44;6127061;23;20168;-79
2022/04/16 08:09:23;;;;;;;2.40;2.20;;;;;;;9.92;100.00;100215.13;6126781;23;20633;-80
2022/04/16 08:11:49;;;;;;;2.13;1.93;;;;;;;9.88;100.00;100213.88;6126808;23;20164;-78
2022/04/16 08:14:20;;;;;;;2.13;2.03;;;;;;;9.85;100.00;100204.38;6127143;23;20166;-78
2022/04/16 08:16:48;;;;;;;1.67;1.57;;;;;;;9.77;100.00;100209.94;6126661;23;20215;-79
2022/04/16 08:19:15;;;;;;;1.50;1.40;;;;;;;9.88;100.00;100211.22;6126903;23;20218;-78
2022/04/16 08:21:42;;;;;;;1.50;1.40;;;;;;;9.80;100.00;100220.22;6127052;23;20195;-79
2022/04/16 08:24:28;;;;;;;1.40;1.30;;;;;;;9.79;100.00;100210.56;6127136;23;20165;-78
2022/04/16 08:26:55;;;;;;;1.50;1.40;;;;;;;9.93;100.00;100222.13;6127291;23;20156;-78
2022/04/16 08:29:22;;;;;;;2.20;2.00;;;;;;;9.82;100.00;100225.38;6126939;23;20243;-78
2022/04/16 08:31:49;;;;;;;2.00;1.90;;;;;;;9.85;100.00;100235.69;6126848;23;20245;-79
2022/04/16 08:34:36;;;;;;;2.03;1.83;;;;;;;9.65;100.00;100239.13;6127044;23;20189;-79
2022/04/16 08:37:03;;;;;;;1.73;1.63;;;;;;;9.66;100.00;100235.41;6126685;23;20625;-79
2022/04/16 08:39:30;;;;;;;2.10;1.90;;;;;;;9.89;100.00;100245.78;6127105;23;20195;-79
2022/04/16 08:41:57;;;;;;;2.73;2.53;;;;;;;9.86;100.00;100256.91;6126228;23;20183;-79
2022/04/16 08:44:26;;;;;;;3.00;2.80;;;;;;;9.78;100.00;100243.69;6126698;23;20170;-79
2022/04/16 08:46:54;;;;;;;2.67;2.47;;;;;;;9.65;100.00;100252.50;6126496;23;20166;-80
2022/04/16 08:49:21;;;;;;;4.60;3.73;;;;;;;9.60;100.00;100256.78;6126926;23;20506;-79
2022/04/16 08:51:49;;;;;;;2.50;2.30;;;;;;;9.53;100.00;100254.06;6126675;23;20625;-79
2022/04/16 08:54:16;;;;;;;2.60;2.40;;;;;;;9.38;100.00;100263.25;6126654;23;20172;-79
2022/04/16 08:56:42;;;;;;;9.00;7.30;;;;;;;9.27;100.00;100262.78;6126511;23;20210;-79
2022/04/16 08:59:09;;;;;;;3.60;3.30;;;;;;;9.23;100.00;100258.84;6126883;23;20569;-79
2022/04/16 09:01:36;;;;;;;2.70;2.50;;;;;;;9.12;100.00;100256.69;6126395;23;20553;-78
2022/04/16 09:04:03;;;;;;;3.77;3.43;;;;;;;9.21;100.00;100260.03;6126657;23;20159;-79
2022/04/16 09:06:30;;;;;;;2.80;2.60;;;;;;;9.05;100.00;100255.81;6126625;23;20215;-79
2022/04/16 09:08:57;;;;;;;4.33;2.87;;;;;;;9.15;100.00;100256.28;6126829;23;20625;-79
2022/04/16 09:11:24;;;;;;;2.97;2.77;;;;;;;9.15;100.00;100266.16;6101034;23;20251;-79
2022/04/16 09:13:50;;;;;;;3.00;2.80;;;;;;;9.21;100.00;100265.38;6126846;23;20213;-79
2022/04/16 09:16:17;;;;;;;2.40;2.20;;;;;;;9.19;100.00;100262.91;6126435;23;20183;-79
2022/04/16 09:18:52;;;;;;;2.47;2.27;;;;;;;9.13;100.00;100262.88;6126801;23;20222;-78
2022/04/16 09:21:26;;;;;;;2.47;2.27;;;;;;;9.10;100.00;100271.25;6126237;23;20187;-79
2022/04/16 09:24:02;;;;;;;4.17;3.57;;;;;;;9.33;100.00;100273.72;6126883;23;20485;-79
2022/04/16 09:26:39;;;;;;;2.57;2.37;;;;;;;9.16;100.00;100270.50;6126266;23;20152;-79
2022/04/16 09:29:14;;;;;;;3.00;2.80;;;;;;;9.21;100.00;100274.25;6126291;23;20157;-78
2022/04/16 09:31:46;;;;;;;2.50;2.30;;;;;;;9.18;100.00;100284.50;6125512;23;20226;-79
2022/04/16 09:34:20;;;;;;;2.60;2.40;;;;;;;9.27;100.00;100280.66;6100783;23;20656;-79
2022/04/16 09:36:48;;;;;;;1.90;1.80;;;;;;;9.24;100.00;100291.72;6126057;23;20234;-79
2022/04/16 09:39:15;;;;;;;1.47;1.37;;;;;;;9.06;100.00;100284.19;6125851;23;20719;-78
2022/04/16 09:41:46;;;;;;;2.73;1.53;;;;;;;9.03;100.00;100284.59;6126259;23;20536;-78
2022/04/16 09:44:25;;;;;;;1.60;1.40;;;;;;;9.23;100.00;100282.06;6100922;23;20582;-78
2022/04/16 09:46:55;;;;;;;15.03;8.53;;;;;;;9.24;100.00;100289.06;6125869;23;20475;-79
2022/04/16 09:49:22;;;;;;;31.23;15.10;;;;;;;9.74;100.00;100290.63;6125729;23;20210;-78
2022/04/16 09:51:49;;;;;;;31.80;16.20;;;;;;;10.05;100.00;100290.13;6125681;23;20680;-79
2022/04/16 09:54:17;;;;;;;25.47;11.53;;;;;;;10.12;100.00;100288.31;6126781;23;20553;-79
2022/04/16 09:56:46;;;;;;;83.40;29.77;;;;;;;10.14;100.00;100297.78;6102244;23;20258;-80
2022/04/16 09:59:15;;;;;;;2.67;2.47;;;;;;;10.62;100.00;100287.03;6127733;23;20198;-80
2022/04/16 10:01:47;;;;;;;4.47;2.50;;;;;;;10.97;100.00;100287.66;6127984;23;20541;-79
2022/04/16 10:04:18;;;;;;;3.60;2.20;;;;;;;11.08;100.00;100294.25;6102078;23;20514;-79
2022/04/16 10:06:49;;;;;;;2.93;1.73;;;;;;;11.18;100.00;100294.69;6127984;23;20175;-79
2022/04/16 10:09:22;;;;;;;2.10;1.50;;;;;;;11.39;100.00;100300.63;6127955;23;20177;-80
2022/04/16 10:14:36;;;;;;;1.83;1.50;;;;;;;11.04;100.00;100315.31;6105858;23;20156;-79
2022/04/16 10:17:15;;;;;;;1.60;1.50;;;;;;;11.22;100.00;100307.47;6127553;23;20569;-79
2022/04/16 10:19:48;;;;;;;1.83;1.70;;;;;;;11.44;100.00;100300.84;6096603;23;20275;-78
2022/04/16 10:22:26;;;;;;;1.90;1.70;;;;;;;11.26;100.00;100321.28;6098005;23;20156;-78
2022/04/16 10:25:02;;;;;;;2.03;1.90;;;;;;;11.15;100.00;100309.31;6097727;23;20156;-78
2022/04/16 10:27:38;;;;;;;2.07;1.50;;;;;;;11.61;100.00;100308.47;6098086;23;20152;-78
2022/04/16 10:30:11;;;;;;;2.17;1.80;;;;;;;11.78;99.99;100302.44;6095950;23;20163;-78
2022/04/16 10:32:40;;;;;;;1.70;1.60;;;;;;;11.83;100.00;100313.38;6096603;23;20169;-79
2022/04/16 10:35:17;;;;;;;2.03;1.70;;;;;;;12.22;93.98;100314.28;6096132;23;20175;-77
2022/04/16 10:37:49;;;;;;;1.70;1.60;;;;;;;12.28;91.98;100314.22;6098457;23;20220;-79
2022/04/16 10:40:23;;;;;;;1.80;1.70;;;;;;;12.19;92.36;100317.38;6096569;23;20559;-78
2022/04/16 10:43:01;;;;;;;5.47;3.70;;;;;;;12.35;92.29;100319.59;6096503;23;20485;-78
2022/04/16 10:45:27;;;;;;;35.90;16.87;;;;;;;12.21;93.28;100307.25;6097949;23;20152;-78
2022/04/16 10:47:55;;;;;;;14.20;6.20;;;;;;;11.45;92.42;100312.41;6098007;23;20712;-78
2022/04/16 10:50:23;;;;;;;2.63;2.03;;;;;;;11.46;98.52;100309.50;6096765;23;20243;-78
2022/04/16 10:53:01;;;;;;;2.50;2.30;;;;;;;11.16;100.00;100310.13;6098919;23;20164;-79
2022/04/16 10:55:32;;;;;;;2.20;2.00;;;;;;;10.95;100.00;100303.97;6097845;23;20174;-79
2022/04/16 10:58:03;;;;;;;1.80;1.70;;;;;;;10.87;100.00;100314.88;6097920;23;20201;-79
2022/04/16 11:00:41;;;;;;;2.40;2.20;;;;;;;10.66;100.00;100315.06;6095965;23;20156;-79
2022/04/16 11:03:14;;;;;;;2.13;2.00;;;;;;;10.51;100.00;100312.56;6097438;23;20165;-78
2022/04/16 11:05:44;;;;;;;2.43;2.23;;;;;;;10.66;100.00;100316.91;6097237;23;20149;-78
2022/04/16 11:08:13;;;;;;;2.07;1.87;;;;;;;10.57;100.00;100324.31;6096763;23;20607;-77
2022/04/16 11:10:41;;;;;;;2.20;2.00;;;;;;;10.51;100.00;100319.75;6097697;23;20180;-78
2022/04/16 11:13:10;;;;;;;2.30;2.10;;;;;;;10.94;100.00;100318.41;6097426;23;20192;-78
2022/04/16 11:15:36;;;;;;;2.03;1.90;;;;;;;10.84;98.31;100314.47;6097273;23;20200;-79
2022/04/16 11:18:03;;;;;;;2.40;2.20;;;;;;;10.71;100.00;100311.78;6097710;23;20578;-78
2022/04/16 11:20:30;;;;;;;2.43;2.23;;;;;;;10.51;96.36;100322.44;6112596;23;20263;-78
2022/04/16 11:22:58;;;;;;;2.83;2.60;;;;;;;10.69;98.09;100313.81;6126816;23;20238;-79
2022/04/16 11:25:26;;;;;;;2.40;2.20;;;;;;;10.53;100.00;100317.72;6126645;23;20177;-79
2022/04/16 11:36:12;;;;;;;2.70;2.50;;;;;;;9.95;100.00;100337.84;6126193;23;20227;-78
2022/04/16 11:38:40;;;;;;;4.07;2.33;;;;;;;9.62;100.00;100338.50;6125777;23;20271;-78
2022/04/16 11:41:10;;;;;;;2.37;2.17;;;;;;;9.69;100.00;100349.25;6126416;23;20249;-79
2022/04/16 11:43:46;;;;;;;3.00;2.70;;;;;;;9.56;100.00;100339.28;6126498;23;20187;-79
2022/04/16 11:46:14;;;;;;;2.90;2.60;;;;;;;9.42;100.00;100340.22;6125979;23;20212;-79
2022/04/16 11:48:45;;;;;;;3.00;2.73;;;;;;;9.43;100.00;100336.50;6126091;23;20188;-78
2022/04/16 11:51:13;;;;;;;3.30;2.60;;;;;;;9.44;100.00;100340.84;6126255;23;20621;-79